sensor_id;sensor_type;location;lat;lon;timestamp;P1;durP1;ratioP1;P2;durP2;ratioP2
64682;SDS011;51107;47.652;19.016;2022-08-19T00:00:09;3.62;;;2.55;;
64682;SDS011;51107;47.652;19.016;2022-08-19T00:02:39;3.95;;;2.42;;
64682;SDS011;51107;47.652;19.016;2022-08-19T00:05:17;2.50;;;2.00;;
64682;SDS011;51107;47.652;19.016;2022-08-19T00:07:47;2.25;;;2.00;;
64682;SDS011;51107;47.652;19.016;2022-08-19T00:10:17;6.00;;;2.70;;
64682;SDS011;51107;47.652;19.016;2022-08-19T00:12:47;4.00;;;2.17;;
64682;SDS011;51107;47.652;19.016;2022-08-19T00:15:16;2.95;;;2.05;;
64682;SDS011;51107;47.652;19.016;2022-08-19T00:17:47;2.92;;;2.05;;
64682;SDS011;51107;47.652;19.016;2022-08-19T00:20:17;2.42;;;1.90;;
64682;SDS011;51107;47.652;19.016;2022-08-19T00:22:48;3.95;;;2.10;;
64682;SDS011;51107;47.652;19.016;2022-08-19T00:25:17;2.83;;;2.15;;
64682;SDS011;51107;47.652;19.016;2022-08-19T00:27:57;6.07;;;2.40;;
64682;SDS011;51107;47.652;19.016;2022-08-19T00:30:26;7.32;;;2.55;;
64682;SDS011;51107;47.652;19.016;2022-08-19T00:32:55;3.35;;;2.03;;
64682;SDS011;51107;47.652;19.016;2022-08-19T00:35:25;3.03;;;2.15;;
64682;SDS011;51107;47.652;19.016;2022-08-19T00:37:55;3.40;;;2.40;;
64682;SDS011;51107;47.652;19.016;2022-08-19T00:40:23;2.30;;;2.08;;
64682;SDS011;51107;47.652;19.016;2022-08-19T00:42:53;2.40;;;2.00;;
64682;SDS011;51107;47.652;19.016;2022-08-19T00:45:23;2.85;;;2.08;;
64682;SDS011;51107;47.652;19.016;2022-08-19T00:47:54;3.87;;;2.28;;
64682;SDS011;51107;47.652;19.016;2022-08-19T00:50:22;2.67;;;2.20;;
64682;SDS011;51107;47.652;19.016;2022-08-19T00:52:51;2.67;;;2.28;;
64682;SDS011;51107;47.652;19.016;2022-08-19T00:55:22;4.03;;;2.12;;
64682;SDS011;51107;47.652;19.016;2022-08-19T00:57:56;2.47;;;1.77;;
64682;SDS011;51107;47.652;19.016;2022-08-19T01:00:29;3.08;;;2.10;;
64682;SDS011;51107;47.652;19.016;2022-08-19T01:02:59;3.25;;;2.42;;
64682;SDS011;51107;47.652;19.016;2022-08-19T01:05:27;4.95;;;2.25;;
64682;SDS011;51107;47.652;19.016;2022-08-19T01:07:58;3.03;;;2.17;;
64682;SDS011;51107;47.652;19.016;2022-08-19T01:10:29;2.95;;;2.37;;
64682;SDS011;51107;47.652;19.016;2022-08-19T01:13:03;4.00;;;2.20;;
64682;SDS011;51107;47.652;19.016;2022-08-19T01:15:34;3.42;;;2.67;;
64682;SDS011;51107;47.652;19.016;2022-08-19T01:18:08;2.85;;;2.35;;
64682;SDS011;51107;47.652;19.016;2022-08-19T01:20:39;2.85;;;2.53;;
64682;SDS011;51107;47.652;19.016;2022-08-19T01:23:09;3.62;;;2.35;;
64682;SDS011;51107;47.652;19.016;2022-08-19T01:25:40;3.47;;;2.62;;
64682;SDS011;51107;47.652;19.016;2022-08-19T01:28:20;3.28;;;2.30;;
64682;SDS011;51107;47.652;19.016;2022-08-19T01:31:00;8.13;;;2.58;;
64682;SDS011;51107;47.652;19.016;2022-08-19T01:33:35;3.20;;;2.35;;
64682;SDS011;51107;47.652;19.016;2022-08-19T01:36:04;4.10;;;2.28;;
64682;SDS011;51107;47.652;19.016;2022-08-19T01:38:39;3.78;;;2.37;;
64682;SDS011;51107;47.652;19.016;2022-08-19T01:41:11;3.78;;;2.20;;
64682;SDS011;51107;47.652;19.016;2022-08-19T01:43:40;2.97;;;2.28;;
64682;SDS011;51107;47.652;19.016;2022-08-19T01:46:29;6.45;;;2.53;;
64682;SDS011;51107;47.652;19.016;2022-08-19T01:48:59;2.47;;;2.05;;
64682;SDS011;51107;47.652;19.016;2022-08-19T01:51:27;3.22;;;2.37;;
64682;SDS011;51107;47.652;19.016;2022-08-19T01:54:05;4.32;;;2.50;;
64682;SDS011;51107;47.652;19.016;2022-08-19T01:56:37;3.35;;;2.10;;
64682;SDS011;51107;47.652;19.016;2022-08-19T01:59:13;4.00;;;2.62;;
64682;SDS011;51107;47.652;19.016;2022-08-19T02:01:45;4.00;;;2.45;;
64682;SDS011;51107;47.652;19.016;2022-08-19T02:04:14;3.53;;;2.25;;
64682;SDS011;51107;47.652;19.016;2022-08-19T02:06:42;4.37;;;2.65;;
64682;SDS011;51107;47.652;19.016;2022-08-19T02:09:11;3.08;;;2.25;;
64682;SDS011;51107;47.652;19.016;2022-08-19T02:11:39;5.22;;;2.65;;
64682;SDS011;51107;47.652;19.016;2022-08-19T02:14:09;5.78;;;3.05;;
64682;SDS011;51107;47.652;19.016;2022-08-19T02:16:38;3.35;;;2.42;;
64682;SDS011;51107;47.652;19.016;2022-08-19T02:19:07;2.90;;;2.03;;
64682;SDS011;51107;47.652;19.016;2022-08-19T02:21:36;7.10;;;2.78;;
64682;SDS011;51107;47.652;19.016;2022-08-19T02:24:05;4.55;;;2.83;;
64682;SDS011;51107;47.652;19.016;2022-08-19T02:26:33;3.33;;;2.33;;
64682;SDS011;51107;47.652;19.016;2022-08-19T02:29:02;5.68;;;3.08;;
64682;SDS011;51107;47.652;19.016;2022-08-19T02:31:31;2.60;;;2.20;;
64682;SDS011;51107;47.652;19.016;2022-08-19T02:33:59;2.70;;;2.25;;
64682;SDS011;51107;47.652;19.016;2022-08-19T02:36:28;4.05;;;2.67;;
64682;SDS011;51107;47.652;19.016;2022-08-19T02:38:58;3.50;;;2.53;;
64682;SDS011;51107;47.652;19.016;2022-08-19T02:41:28;3.15;;;2.45;;
64682;SDS011;51107;47.652;19.016;2022-08-19T02:43:59;9.43;;;3.03;;
64682;SDS011;51107;47.652;19.016;2022-08-19T02:46:49;3.60;;;2.40;;
64682;SDS011;51107;47.652;19.016;2022-08-19T02:49:19;4.05;;;2.75;;
64682;SDS011;51107;47.652;19.016;2022-08-19T02:51:47;4.68;;;2.40;;
64682;SDS011;51107;47.652;19.016;2022-08-19T02:54:16;3.53;;;2.42;;
64682;SDS011;51107;47.652;19.016;2022-08-19T02:56:44;3.03;;;2.15;;
64682;SDS011;51107;47.652;19.016;2022-08-19T02:59:14;4.10;;;2.72;;
64682;SDS011;51107;47.652;19.016;2022-08-19T03:01:43;3.85;;;2.28;;
64682;SDS011;51107;47.652;19.016;2022-08-19T03:04:12;3.28;;;2.30;;
64682;SDS011;51107;47.652;19.016;2022-08-19T03:06:43;2.60;;;2.00;;
64682;SDS011;51107;47.652;19.016;2022-08-19T03:09:13;3.53;;;2.80;;
64682;SDS011;51107;47.652;19.016;2022-08-19T03:11:42;3.35;;;2.37;;
64682;SDS011;51107;47.652;19.016;2022-08-19T03:14:10;3.75;;;2.65;;
64682;SDS011;51107;47.652;19.016;2022-08-19T03:16:44;4.75;;;2.67;;
64682;SDS011;51107;47.652;19.016;2022-08-19T03:19:16;3.00;;;2.28;;
64682;SDS011;51107;47.652;19.016;2022-08-19T03:21:46;4.00;;;2.60;;
64682;SDS011;51107;47.652;19.016;2022-08-19T03:24:15;3.28;;;2.20;;
64682;SDS011;51107;47.652;19.016;2022-08-19T03:26:46;3.33;;;2.37;;
64682;SDS011;51107;47.652;19.016;2022-08-19T03:29:17;2.67;;;2.20;;
64682;SDS011;51107;47.652;19.016;2022-08-19T03:32:02;3.37;;;2.08;;
64682;SDS011;51107;47.652;19.016;2022-08-19T03:34:32;4.35;;;2.50;;
64682;SDS011;51107;47.652;19.016;2022-08-19T03:37:05;3.92;;;3.05;;
64682;SDS011;51107;47.652;19.016;2022-08-19T03:39:36;4.43;;;2.78;;
64682;SDS011;51107;47.652;19.016;2022-08-19T03:42:06;6.30;;;2.80;;
64682;SDS011;51107;47.652;19.016;2022-08-19T03:44:54;4.05;;;2.78;;
64682;SDS011;51107;47.652;19.016;2022-08-19T03:47:23;6.72;;;3.00;;
64682;SDS011;51107;47.652;19.016;2022-08-19T03:49:51;3.58;;;2.30;;
64682;SDS011;51107;47.652;19.016;2022-08-19T03:52:20;3.20;;;2.55;;
64682;SDS011;51107;47.652;19.016;2022-08-19T03:54:48;5.72;;;3.12;;
64682;SDS011;51107;47.652;19.016;2022-08-19T03:57:16;4.28;;;3.03;;
64682;SDS011;51107;47.652;19.016;2022-08-19T03:59:44;3.30;;;2.50;;
64682;SDS011;51107;47.652;19.016;2022-08-19T04:02:13;4.35;;;2.58;;
64682;SDS011;51107;47.652;19.016;2022-08-19T04:04:43;3.62;;;2.42;;
64682;SDS011;51107;47.652;19.016;2022-08-19T04:07:12;2.60;;;2.10;;
64682;SDS011;51107;47.652;19.016;2022-08-19T04:09:44;3.90;;;2.45;;
64682;SDS011;51107;47.652;19.016;2022-08-19T04:12:12;2.55;;;2.00;;
64682;SDS011;51107;47.652;19.016;2022-08-19T04:14:40;6.00;;;2.90;;
64682;SDS011;51107;47.652;19.016;2022-08-19T04:17:09;4.78;;;2.62;;
64682;SDS011;51107;47.652;19.016;2022-08-19T04:19:37;4.18;;;2.58;;
64682;SDS011;51107;47.652;19.016;2022-08-19T04:22:11;3.75;;;2.87;;
64682;SDS011;51107;47.652;19.016;2022-08-19T04:24:40;4.43;;;2.45;;
64682;SDS011;51107;47.652;19.016;2022-08-19T04:27:08;3.45;;;2.65;;
64682;SDS011;51107;47.652;19.016;2022-08-19T04:29:36;4.37;;;2.62;;
64682;SDS011;51107;47.652;19.016;2022-08-19T04:32:07;3.47;;;2.30;;
64682;SDS011;51107;47.652;19.016;2022-08-19T04:34:37;4.60;;;2.50;;
64682;SDS011;51107;47.652;19.016;2022-08-19T04:37:26;3.47;;;2.60;;
64682;SDS011;51107;47.652;19.016;2022-08-19T04:40:03;4.12;;;2.15;;
64682;SDS011;51107;47.652;19.016;2022-08-19T04:42:51;3.45;;;2.37;;
64682;SDS011;51107;47.652;19.016;2022-08-19T04:45:21;3.15;;;2.20;;
64682;SDS011;51107;47.652;19.016;2022-08-19T04:47:54;5.07;;;3.10;;
64682;SDS011;51107;47.652;19.016;2022-08-19T04:50:44;4.60;;;2.37;;
64682;SDS011;51107;47.652;19.016;2022-08-19T04:53:12;3.85;;;2.47;;
64682;SDS011;51107;47.652;19.016;2022-08-19T04:55:41;6.72;;;2.42;;
64682;SDS011;51107;47.652;19.016;2022-08-19T04:58:10;5.35;;;2.72;;
64682;SDS011;51107;47.652;19.016;2022-08-19T05:00:39;3.60;;;2.33;;
64682;SDS011;51107;47.652;19.016;2022-08-19T05:03:07;8.65;;;2.83;;
64682;SDS011;51107;47.652;19.016;2022-08-19T05:05:40;8.25;;;2.58;;
64682;SDS011;51107;47.652;19.016;2022-08-19T05:08:12;5.45;;;2.75;;
64682;SDS011;51107;47.652;19.016;2022-08-19T05:10:58;3.40;;;2.72;;
64682;SDS011;51107;47.652;19.016;2022-08-19T05:13:27;5.72;;;3.05;;
64682;SDS011;51107;47.652;19.016;2022-08-19T05:15:56;5.82;;;2.62;;
64682;SDS011;51107;47.652;19.016;2022-08-19T05:18:26;4.85;;;2.67;;
64682;SDS011;51107;47.652;19.016;2022-08-19T05:21:14;4.12;;;2.78;;
64682;SDS011;51107;47.652;19.016;2022-08-19T05:24:04;4.62;;;2.90;;
64682;SDS011;51107;47.652;19.016;2022-08-19T05:26:37;7.85;;;2.20;;
64682;SDS011;51107;47.652;19.016;2022-08-19T05:29:07;4.55;;;2.60;;
64682;SDS011;51107;47.652;19.016;2022-08-19T05:31:37;3.70;;;2.75;;
64682;SDS011;51107;47.652;19.016;2022-08-19T05:34:09;3.35;;;2.33;;
64682;SDS011;51107;47.652;19.016;2022-08-19T05:36:47;3.42;;;2.60;;
64682;SDS011;51107;47.652;19.016;2022-08-19T05:39:18;5.65;;;2.85;;
64682;SDS011;51107;47.652;19.016;2022-08-19T05:41:49;5.82;;;2.20;;
64682;SDS011;51107;47.652;19.016;2022-08-19T05:44:20;2.85;;;2.15;;
64682;SDS011;51107;47.652;19.016;2022-08-19T05:46:49;2.83;;;2.22;;
64682;SDS011;51107;47.652;19.016;2022-08-19T05:49:21;3.45;;;2.00;;
64682;SDS011;51107;47.652;19.016;2022-08-19T05:51:51;4.53;;;2.58;;
64682;SDS011;51107;47.652;19.016;2022-08-19T05:54:19;3.00;;;2.28;;
64682;SDS011;51107;47.652;19.016;2022-08-19T05:56:48;3.03;;;2.22;;
64682;SDS011;51107;47.652;19.016;2022-08-19T05:59:17;4.03;;;2.33;;
64682;SDS011;51107;47.652;19.016;2022-08-19T06:01:48;3.80;;;2.33;;
64682;SDS011;51107;47.652;19.016;2022-08-19T06:04:22;2.67;;;2.28;;
64682;SDS011;51107;47.652;19.016;2022-08-19T06:06:52;4.80;;;2.50;;
64682;SDS011;51107;47.652;19.016;2022-08-19T06:09:21;3.03;;;2.28;;
64682;SDS011;51107;47.652;19.016;2022-08-19T06:11:52;4.50;;;2.65;;
64682;SDS011;51107;47.652;19.016;2022-08-19T06:14:25;5.95;;;2.37;;
64682;SDS011;51107;47.652;19.016;2022-08-19T06:17:00;3.42;;;1.95;;
64682;SDS011;51107;47.652;19.016;2022-08-19T06:19:34;3.47;;;2.00;;
64682;SDS011;51107;47.652;19.016;2022-08-19T06:22:08;3.03;;;2.45;;
64682;SDS011;51107;47.652;19.016;2022-08-19T06:24:36;3.00;;;2.12;;
64682;SDS011;51107;47.652;19.016;2022-08-19T06:27:04;2.95;;;2.05;;
64682;SDS011;51107;47.652;19.016;2022-08-19T06:29:36;4.37;;;2.20;;
64682;SDS011;51107;47.652;19.016;2022-08-19T06:32:04;3.40;;;2.40;;
64682;SDS011;51107;47.652;19.016;2022-08-19T06:34:32;3.28;;;2.25;;
64682;SDS011;51107;47.652;19.016;2022-08-19T06:37:02;2.60;;;2.05;;
64682;SDS011;51107;47.652;19.016;2022-08-19T06:39:32;3.10;;;2.12;;
64682;SDS011;51107;47.652;19.016;2022-08-19T06:42:03;2.75;;;1.90;;
64682;SDS011;51107;47.652;19.016;2022-08-19T06:44:37;2.28;;;2.00;;
64682;SDS011;51107;47.652;19.016;2022-08-19T06:47:12;2.78;;;1.87;;
64682;SDS011;51107;47.652;19.016;2022-08-19T06:49:55;3.33;;;1.92;;
64682;SDS011;51107;47.652;19.016;2022-08-19T06:52:33;2.70;;;2.00;;
64682;SDS011;51107;47.652;19.016;2022-08-19T06:55:03;2.95;;;2.03;;
64682;SDS011;51107;47.652;19.016;2022-08-19T06:57:33;2.75;;;1.90;;
64682;SDS011;51107;47.652;19.016;2022-08-19T07:00:03;3.80;;;2.30;;
64682;SDS011;51107;47.652;19.016;2022-08-19T07:02:42;10.65;;;2.62;;
64682;SDS011;51107;47.652;19.016;2022-08-19T07:05:19;2.70;;;2.25;;
64682;SDS011;51107;47.652;19.016;2022-08-19T07:07:49;4.25;;;2.30;;
64682;SDS011;51107;47.652;19.016;2022-08-19T07:10:18;3.85;;;2.25;;
64682;SDS011;51107;47.652;19.016;2022-08-19T07:12:46;5.35;;;2.50;;
64682;SDS011;51107;47.652;19.016;2022-08-19T07:15:17;3.87;;;1.95;;
64682;SDS011;51107;47.652;19.016;2022-08-19T07:17:45;3.78;;;2.12;;
64682;SDS011;51107;47.652;19.016;2022-08-19T07:22:47;3.83;;;1.90;;
64682;SDS011;51107;47.652;19.016;2022-08-19T07:25:16;5.03;;;2.00;;
64682;SDS011;51107;47.652;19.016;2022-08-19T07:27:48;2.55;;;1.90;;
64682;SDS011;51107;47.652;19.016;2022-08-19T07:30:21;4.57;;;2.35;;
64682;SDS011;51107;47.652;19.016;2022-08-19T07:32:53;2.75;;;2.05;;
64682;SDS011;51107;47.652;19.016;2022-08-19T07:35:22;3.70;;;2.30;;
64682;SDS011;51107;47.652;19.016;2022-08-19T07:37:51;2.75;;;1.80;;
64682;SDS011;51107;47.652;19.016;2022-08-19T07:40:21;3.37;;;1.98;;
64682;SDS011;51107;47.652;19.016;2022-08-19T07:42:49;3.12;;;2.37;;
64682;SDS011;51107;47.652;19.016;2022-08-19T07:45:17;3.15;;;2.10;;
64682;SDS011;51107;47.652;19.016;2022-08-19T07:47:46;4.45;;;2.00;;
64682;SDS011;51107;47.652;19.016;2022-08-19T07:50:18;2.97;;;2.00;;
64682;SDS011;51107;47.652;19.016;2022-08-19T07:52:48;3.25;;;2.17;;
64682;SDS011;51107;47.652;19.016;2022-08-19T07:55:19;5.32;;;2.20;;
64682;SDS011;51107;47.652;19.016;2022-08-19T07:58:12;2.90;;;2.10;;
64682;SDS011;51107;47.652;19.016;2022-08-19T08:00:42;2.87;;;2.05;;
64682;SDS011;51107;47.652;19.016;2022-08-19T08:03:13;1.98;;;1.58;;
64682;SDS011;51107;47.652;19.016;2022-08-19T08:05:42;2.65;;;2.15;;
64682;SDS011;51107;47.652;19.016;2022-08-19T08:08:30;2.47;;;2.10;;
64682;SDS011;51107;47.652;19.016;2022-08-19T08:10:59;5.50;;;2.42;;
64682;SDS011;51107;47.652;19.016;2022-08-19T08:13:28;4.62;;;1.98;;
64682;SDS011;51107;47.652;19.016;2022-08-19T08:15:57;4.25;;;1.75;;
64682;SDS011;51107;47.652;19.016;2022-08-19T08:18:25;4.28;;;2.28;;
64682;SDS011;51107;47.652;19.016;2022-08-19T08:20:58;4.57;;;2.10;;
64682;SDS011;51107;47.652;19.016;2022-08-19T08:23:26;2.90;;;2.28;;
64682;SDS011;51107;47.652;19.016;2022-08-19T08:25:55;2.47;;;2.20;;
64682;SDS011;51107;47.652;19.016;2022-08-19T08:28:25;3.83;;;2.12;;
64682;SDS011;51107;47.652;19.016;2022-08-19T08:30:58;3.00;;;2.08;;
64682;SDS011;51107;47.652;19.016;2022-08-19T08:33:27;3.35;;;2.30;;
64682;SDS011;51107;47.652;19.016;2022-08-19T08:36:01;2.58;;;2.00;;
64682;SDS011;51107;47.652;19.016;2022-08-19T08:38:32;3.85;;;2.40;;
64682;SDS011;51107;47.652;19.016;2022-08-19T08:41:25;2.15;;;1.75;;
64682;SDS011;51107;47.652;19.016;2022-08-19T08:44:03;3.08;;;2.28;;
64682;SDS011;51107;47.652;19.016;2022-08-19T08:46:46;2.62;;;2.25;;
64682;SDS011;51107;47.652;19.016;2022-08-19T08:49:24;2.55;;;2.30;;
64682;SDS011;51107;47.652;19.016;2022-08-19T08:51:57;4.72;;;2.47;;
64682;SDS011;51107;47.652;19.016;2022-08-19T08:54:37;3.90;;;2.35;;
64682;SDS011;51107;47.652;19.016;2022-08-19T09:00:15;2.67;;;2.35;;
64682;SDS011;51107;47.652;19.016;2022-08-19T09:02:47;2.65;;;2.10;;
64682;SDS011;51107;47.652;19.016;2022-08-19T09:05:18;2.78;;;2.37;;
64682;SDS011;51107;47.652;19.016;2022-08-19T09:10:58;2.12;;;1.92;;
64682;SDS011;51107;47.652;19.016;2022-08-19T09:13:35;3.28;;;2.22;;
64682;SDS011;51107;47.652;19.016;2022-08-19T09:16:15;2.62;;;2.20;;
64682;SDS011;51107;47.652;19.016;2022-08-19T09:18:56;2.95;;;2.50;;
64682;SDS011;51107;47.652;19.016;2022-08-19T09:21:29;4.75;;;2.40;;
64682;SDS011;51107;47.652;19.016;2022-08-19T09:24:01;2.28;;;2.08;;
64682;SDS011;51107;47.652;19.016;2022-08-19T09:26:31;2.55;;;2.25;;
64682;SDS011;51107;47.652;19.016;2022-08-19T09:29:19;2.62;;;2.12;;
64682;SDS011;51107;47.652;19.016;2022-08-19T09:31:49;6.12;;;2.50;;
64682;SDS011;51107;47.652;19.016;2022-08-19T09:34:17;2.72;;;2.33;;
64682;SDS011;51107;47.652;19.016;2022-08-19T09:36:49;2.37;;;2.17;;
64682;SDS011;51107;47.652;19.016;2022-08-19T09:39:21;4.35;;;2.65;;
64682;SDS011;51107;47.652;19.016;2022-08-19T09:41:50;2.78;;;2.40;;
64682;SDS011;51107;47.652;19.016;2022-08-19T09:44:18;6.12;;;2.87;;
64682;SDS011;51107;47.652;19.016;2022-08-19T09:46:50;3.87;;;2.40;;
64682;SDS011;51107;47.652;19.016;2022-08-19T09:49:19;4.32;;;1.95;;
64682;SDS011;51107;47.652;19.016;2022-08-19T09:51:51;2.25;;;2.05;;
64682;SDS011;51107;47.652;19.016;2022-08-19T09:54:24;3.62;;;2.45;;
64682;SDS011;51107;47.652;19.016;2022-08-19T09:56:53;2.53;;;2.30;;
64682;SDS011;51107;47.652;19.016;2022-08-19T09:59:22;2.53;;;2.17;;
64682;SDS011;51107;47.652;19.016;2022-08-19T10:01:50;4.07;;;2.35;;
64682;SDS011;51107;47.652;19.016;2022-08-19T10:04:20;3.12;;;2.12;;
64682;SDS011;51107;47.652;19.016;2022-08-19T10:06:54;2.75;;;2.00;;
64682;SDS011;51107;47.652;19.016;2022-08-19T10:09:23;2.35;;;2.15;;
64682;SDS011;51107;47.652;19.016;2022-08-19T10:11:53;2.00;;;1.85;;
64682;SDS011;51107;47.652;19.016;2022-08-19T10:14:21;2.45;;;2.10;;
64682;SDS011;51107;47.652;19.016;2022-08-19T10:16:51;2.55;;;2.22;;
64682;SDS011;51107;47.652;19.016;2022-08-19T10:19:19;2.30;;;2.10;;
64682;SDS011;51107;47.652;19.016;2022-08-19T10:21:53;3.10;;;2.12;;
64682;SDS011;51107;47.652;19.016;2022-08-19T10:24:26;3.37;;;2.20;;
64682;SDS011;51107;47.652;19.016;2022-08-19T10:26:56;2.72;;;2.05;;
64682;SDS011;51107;47.652;19.016;2022-08-19T10:29:27;2.10;;;1.90;;
64682;SDS011;51107;47.652;19.016;2022-08-19T10:32:03;2.35;;;2.15;;
64682;SDS011;51107;47.652;19.016;2022-08-19T10:34:36;3.22;;;2.25;;
64682;SDS011;51107;47.652;19.016;2022-08-19T10:37:16;3.45;;;2.60;;
64682;SDS011;51107;47.652;19.016;2022-08-19T10:39:57;2.72;;;2.50;;
64682;SDS011;51107;47.652;19.016;2022-08-19T10:42:26;2.92;;;2.03;;
64682;SDS011;51107;47.652;19.016;2022-08-19T10:44:54;3.58;;;2.75;;
64682;SDS011;51107;47.652;19.016;2022-08-19T10:47:25;2.78;;;2.20;;
64682;SDS011;51107;47.652;19.016;2022-08-19T10:49:58;2.65;;;2.45;;
64682;SDS011;51107;47.652;19.016;2022-08-19T10:52:46;2.58;;;2.00;;
64682;SDS011;51107;47.652;19.016;2022-08-19T10:55:18;2.45;;;1.95;;
64682;SDS011;51107;47.652;19.016;2022-08-19T10:58:14;2.53;;;2.30;;
64682;SDS011;51107;47.652;19.016;2022-08-19T11:00:50;9.30;;;2.42;;
64682;SDS011;51107;47.652;19.016;2022-08-19T11:03:21;2.35;;;2.15;;
64682;SDS011;51107;47.652;19.016;2022-08-19T11:06:03;3.22;;;2.20;;
64682;SDS011;51107;47.652;19.016;2022-08-19T11:08:33;2.78;;;2.42;;
64682;SDS011;51107;47.652;19.016;2022-08-19T11:11:03;3.35;;;2.30;;
64682;SDS011;51107;47.652;19.016;2022-08-19T11:13:35;2.05;;;1.90;;
64682;SDS011;51107;47.652;19.016;2022-08-19T11:18:39;2.20;;;2.00;;
64682;SDS011;51107;47.652;19.016;2022-08-19T11:23:47;3.47;;;1.80;;
64682;SDS011;51107;47.652;19.016;2022-08-19T11:26:18;2.62;;;2.42;;
64682;SDS011;51107;47.652;19.016;2022-08-19T11:28:48;3.05;;;2.17;;
64682;SDS011;51107;47.652;19.016;2022-08-19T11:31:21;2.58;;;2.30;;
64682;SDS011;51107;47.652;19.016;2022-08-19T11:33:56;2.47;;;2.03;;
64682;SDS011;51107;47.652;19.016;2022-08-19T11:36:28;4.15;;;2.08;;
64682;SDS011;51107;47.652;19.016;2022-08-19T11:38:57;5.18;;;2.30;;
64682;SDS011;51107;47.652;19.016;2022-08-19T11:41:25;2.50;;;1.90;;
64682;SDS011;51107;47.652;19.016;2022-08-19T11:43:54;4.05;;;2.37;;
64682;SDS011;51107;47.652;19.016;2022-08-19T11:46:24;2.92;;;2.10;;
64682;SDS011;51107;47.652;19.016;2022-08-19T11:48:54;2.25;;;1.87;;
64682;SDS011;51107;47.652;19.016;2022-08-19T11:51:23;2.75;;;1.98;;
64682;SDS011;51107;47.652;19.016;2022-08-19T11:53:53;2.78;;;2.12;;
64682;SDS011;51107;47.652;19.016;2022-08-19T11:56:23;3.10;;;2.28;;
64682;SDS011;51107;47.652;19.016;2022-08-19T11:58:53;2.97;;;2.00;;
64682;SDS011;51107;47.652;19.016;2022-08-19T12:01:25;4.28;;;2.58;;
64682;SDS011;51107;47.652;19.016;2022-08-19T12:03:55;2.67;;;2.30;;
64682;SDS011;51107;47.652;19.016;2022-08-19T12:06:25;2.92;;;2.40;;
64682;SDS011;51107;47.652;19.016;2022-08-19T12:08:57;3.15;;;2.58;;
64682;SDS011;51107;47.652;19.016;2022-08-19T12:11:28;4.12;;;2.70;;
64682;SDS011;51107;47.652;19.016;2022-08-19T12:16:30;2.80;;;2.30;;
64682;SDS011;51107;47.652;19.016;2022-08-19T12:19:00;2.20;;;2.00;;
64682;SDS011;51107;47.652;19.016;2022-08-19T12:21:32;19.98;;;3.60;;
64682;SDS011;51107;47.652;19.016;2022-08-19T12:24:05;2.85;;;2.50;;
64682;SDS011;51107;47.652;19.016;2022-08-19T12:26:35;2.67;;;2.47;;
64682;SDS011;51107;47.652;19.016;2022-08-19T12:29:21;2.67;;;2.47;;
64682;SDS011;51107;47.652;19.016;2022-08-19T12:31:51;3.22;;;2.40;;
64682;SDS011;51107;47.652;19.016;2022-08-19T12:34:19;2.78;;;2.45;;
64682;SDS011;51107;47.652;19.016;2022-08-19T12:36:48;4.22;;;2.30;;
64682;SDS011;51107;47.652;19.016;2022-08-19T12:39:17;2.22;;;1.95;;
64682;SDS011;51107;47.652;19.016;2022-08-19T12:41:45;3.53;;;2.12;;
64682;SDS011;51107;47.652;19.016;2022-08-19T12:44:22;5.32;;;2.30;;
64682;SDS011;51107;47.652;19.016;2022-08-19T12:46:58;2.85;;;2.20;;
64682;SDS011;51107;47.652;19.016;2022-08-19T12:49:28;7.85;;;2.33;;
64682;SDS011;51107;47.652;19.016;2022-08-19T12:52:18;2.72;;;2.40;;
64682;SDS011;51107;47.652;19.016;2022-08-19T12:54:51;5.00;;;2.60;;
64682;SDS011;51107;47.652;19.016;2022-08-19T12:57:22;3.67;;;2.53;;
64682;SDS011;51107;47.652;19.016;2022-08-19T13:00:00;2.83;;;2.50;;
64682;SDS011;51107;47.652;19.016;2022-08-19T13:02:39;2.87;;;2.50;;
64682;SDS011;51107;47.652;19.016;2022-08-19T13:05:11;2.72;;;2.40;;
64682;SDS011;51107;47.652;19.016;2022-08-19T13:07:43;2.40;;;2.20;;
64682;SDS011;51107;47.652;19.016;2022-08-19T13:10:16;2.62;;;2.35;;
64682;SDS011;51107;47.652;19.016;2022-08-19T13:12:47;4.28;;;2.47;;
64682;SDS011;51107;47.652;19.016;2022-08-19T13:15:18;3.37;;;2.42;;
64682;SDS011;51107;47.652;19.016;2022-08-19T13:17:52;4.03;;;3.15;;
64682;SDS011;51107;47.652;19.016;2022-08-19T13:20:22;4.78;;;3.12;;
64682;SDS011;51107;47.652;19.016;2022-08-19T13:22:51;8.02;;;4.10;;
64682;SDS011;51107;47.652;19.016;2022-08-19T13:25:19;4.07;;;3.50;;
64682;SDS011;51107;47.652;19.016;2022-08-19T13:27:49;7.22;;;3.70;;
64682;SDS011;51107;47.652;19.016;2022-08-19T13:30:19;7.37;;;4.12;;
64682;SDS011;51107;47.652;19.016;2022-08-19T13:33:08;5.65;;;4.32;;
64682;SDS011;51107;47.652;19.016;2022-08-19T13:35:48;4.97;;;4.05;;
64682;SDS011;51107;47.652;19.016;2022-08-19T13:38:23;7.68;;;5.20;;
64682;SDS011;51107;47.652;19.016;2022-08-19T13:40:53;6.30;;;4.57;;
64682;SDS011;51107;47.652;19.016;2022-08-19T13:43:25;5.78;;;4.65;;
64682;SDS011;51107;47.652;19.016;2022-08-19T13:45:54;5.40;;;4.10;;
64682;SDS011;51107;47.652;19.016;2022-08-19T13:48:27;6.20;;;4.22;;
64682;SDS011;51107;47.652;19.016;2022-08-19T13:50:55;7.32;;;4.22;;
64682;SDS011;51107;47.652;19.016;2022-08-19T13:53:24;7.50;;;4.68;;
64682;SDS011;51107;47.652;19.016;2022-08-19T13:55:52;5.82;;;4.45;;
64682;SDS011;51107;47.652;19.016;2022-08-19T13:58:23;9.60;;;4.15;;
64682;SDS011;51107;47.652;19.016;2022-08-19T14:00:53;3.50;;;2.53;;
64682;SDS011;51107;47.652;19.016;2022-08-19T14:03:22;7.90;;;2.50;;
64682;SDS011;51107;47.652;19.016;2022-08-19T14:05:51;8.35;;;2.37;;
64682;SDS011;51107;47.652;19.016;2022-08-19T14:08:19;16.33;;;2.65;;
64682;SDS011;51107;47.652;19.016;2022-08-19T14:10:48;4.07;;;2.78;;
64682;SDS011;51107;47.652;19.016;2022-08-19T14:13:19;2.05;;;1.60;;
64682;SDS011;51107;47.652;19.016;2022-08-19T14:15:49;3.67;;;2.30;;
64682;SDS011;51107;47.652;19.016;2022-08-19T14:18:18;2.45;;;1.90;;
64682;SDS011;51107;47.652;19.016;2022-08-19T14:20:46;2.20;;;1.77;;
64682;SDS011;51107;47.652;19.016;2022-08-19T14:23:15;3.22;;;1.75;;
64682;SDS011;51107;47.652;19.016;2022-08-19T14:25:44;2.12;;;1.73;;
64682;SDS011;51107;47.652;19.016;2022-08-19T14:28:12;6.93;;;2.37;;
64682;SDS011;51107;47.652;19.016;2022-08-19T14:30:40;3.17;;;1.90;;
64682;SDS011;51107;47.652;19.016;2022-08-19T14:33:08;3.53;;;1.80;;
64682;SDS011;51107;47.652;19.016;2022-08-19T14:35:37;2.95;;;1.95;;
64682;SDS011;51107;47.652;19.016;2022-08-19T14:38:06;2.75;;;1.73;;
64682;SDS011;51107;47.652;19.016;2022-08-19T14:40:44;3.08;;;2.10;;
64682;SDS011;51107;47.652;19.016;2022-08-19T14:43:13;5.68;;;2.00;;
64682;SDS011;51107;47.652;19.016;2022-08-19T14:45:44;4.47;;;1.75;;
64682;SDS011;51107;47.652;19.016;2022-08-19T14:48:14;3.67;;;1.67;;
64682;SDS011;51107;47.652;19.016;2022-08-19T14:50:46;4.28;;;2.03;;
64682;SDS011;51107;47.652;19.016;2022-08-19T14:53:15;2.53;;;1.73;;
64682;SDS011;51107;47.652;19.016;2022-08-19T14:55:44;3.00;;;1.80;;
64682;SDS011;51107;47.652;19.016;2022-08-19T14:58:20;3.35;;;2.05;;
64682;SDS011;51107;47.652;19.016;2022-08-19T15:00:58;4.68;;;1.87;;
64682;SDS011;51107;47.652;19.016;2022-08-19T15:03:29;5.87;;;1.48;;
64682;SDS011;51107;47.652;19.016;2022-08-19T15:06:03;2.00;;;1.25;;
64682;SDS011;51107;47.652;19.016;2022-08-19T15:08:33;9.27;;;2.55;;
64682;SDS011;51107;47.652;19.016;2022-08-19T15:11:06;2.15;;;1.33;;
64682;SDS011;51107;47.652;19.016;2022-08-19T15:16:05;2.95;;;1.15;;
64682;SDS011;51107;47.652;19.016;2022-08-19T15:18:45;3.30;;;1.30;;